createdAt,value
2023-03-17T00:01:02.352Z,8.9
2023-03-17T00:03:00.442Z,8.9
2023-03-17T00:04:59.890Z,8.9
2023-03-17T00:06:59.836Z,8.9
2023-03-17T00:08:59.390Z,8.9
2023-03-17T00:10:59.593Z,8.9
2023-03-17T00:12:58.676Z,8.9
2023-03-17T00:14:58.184Z,8.8
2023-03-17T00:16:57.921Z,8.8
2023-03-17T00:18:57.813Z,8.9
2023-03-17T00:20:57.865Z,8.9
2023-03-17T00:24:56.583Z,8.7
2023-03-17T00:28:56.031Z,8.7
2023-03-17T00:30:58.501Z,8.7
2023-03-17T00:32:57.452Z,8.7
2023-03-17T00:34:55.522Z,8.7
2023-03-17T00:40:54.282Z,8.5
2023-03-17T00:48:53.379Z,8.3
2023-03-17T00:50:52.401Z,8.3
2023-03-17T00:54:52.181Z,8.3
2023-03-17T00:56:51.845Z,8.3
2023-03-17T01:00:51.251Z,8.2
2023-03-17T01:02:51.540Z,8.2
2023-03-17T01:05:03.766Z,8.2
2023-03-17T01:06:52.400Z,8.1
2023-03-17T01:10:49.405Z,8.1
2023-03-17T01:12:50.240Z,8.1
2023-03-17T01:14:48.564Z,8.1
2023-03-17T01:16:48.281Z,8.1
2023-03-17T01:18:48.598Z,8.1
2023-03-17T01:20:48.174Z,8.1
2023-03-17T01:22:48.241Z,8.0
2023-03-17T01:24:47.190Z,8.0
2023-03-17T01:26:46.629Z,8.0
2023-03-17T01:28:46.436Z,8.0
2023-03-17T01:34:45.641Z,8.0
2023-03-17T01:36:46.433Z,8.1
2023-03-17T01:38:46.980Z,8.1
2023-03-17T01:40:48.519Z,8.0
2023-03-17T01:45:01.379Z,8.0
2023-03-17T01:46:44.617Z,8.1
2023-03-17T01:48:46.042Z,8.0
2023-03-17T01:50:44.999Z,8.1
2023-03-17T01:52:42.273Z,8.1
2023-03-17T01:54:45.248Z,8.1
2023-03-17T02:00:41.248Z,8.1
2023-03-17T02:02:42.870Z,8.1
2023-03-17T02:04:40.433Z,8.1
2023-03-17T02:08:39.557Z,8.1
2023-03-17T02:10:41.014Z,8.1
2023-03-17T02:12:42.274Z,8.0
2023-03-17T02:14:38.784Z,8.1
2023-03-17T02:16:38.141Z,8.1
2023-03-17T02:18:37.734Z,8.1
2023-03-17T02:20:57.672Z,8.1
2023-03-17T02:22:37.305Z,8.1
2023-03-17T02:26:37.796Z,8.0
2023-03-17T02:28:36.044Z,8.0
2023-03-17T02:30:36.739Z,7.9
2023-03-17T02:32:36.460Z,8.0
2023-03-17T02:34:35.675Z,8.0
2023-03-17T02:36:34.688Z,8.0
2023-03-17T02:38:35.044Z,8.1
2023-03-17T02:40:34.030Z,8.1
2023-03-17T02:42:34.652Z,8.0
2023-03-17T02:44:33.737Z,8.0
2023-03-17T02:46:33.341Z,7.9
2023-03-17T02:48:35.538Z,7.9
2023-03-17T02:50:32.629Z,7.9
2023-03-17T02:52:31.854Z,7.8
2023-03-17T02:58:30.984Z,7.9
2023-03-17T03:00:30.930Z,7.9
2023-03-17T03:04:30.801Z,7.8
2023-03-17T03:06:30.679Z,7.8
2023-03-17T03:08:29.435Z,7.8
2023-03-17T03:10:29.091Z,7.7
2023-03-17T03:14:28.279Z,7.7
2023-03-17T03:16:28.385Z,7.7
2023-03-17T03:18:27.397Z,7.7
2023-03-17T03:20:27.636Z,7.7
2023-03-17T03:22:26.660Z,7.6
2023-03-17T03:24:26.909Z,7.6
2023-03-17T03:26:26.298Z,7.7
2023-03-17T03:28:25.920Z,7.7
2023-03-17T03:30:26.131Z,7.7
2023-03-17T03:32:25.039Z,7.7
2023-03-17T03:34:24.863Z,7.7
2023-03-17T03:38:24.238Z,7.8
2023-03-17T03:40:24.527Z,7.7
2023-03-17T03:42:23.122Z,7.7
2023-03-17T03:44:23.039Z,7.7
2023-03-17T03:48:22.195Z,7.8
2023-03-17T03:50:21.983Z,7.8
2023-03-17T03:52:21.636Z,7.8
2023-03-17T03:56:20.793Z,7.9
2023-03-17T03:58:20.341Z,7.9
2023-03-17T04:00:20.439Z,7.9
2023-03-17T04:02:19.721Z,7.9
2023-03-17T04:10:19.050Z,7.8
2023-03-17T04:12:18.245Z,7.9
2023-03-17T04:14:17.749Z,7.9
2023-03-17T04:16:17.253Z,7.9
2023-03-17T04:18:17.605Z,7.9
2023-03-17T04:20:17.376Z,7.9
2023-03-17T04:22:16.878Z,7.9
2023-03-17T04:24:16.131Z,7.9
2023-03-17T04:26:17.688Z,7.9
2023-03-17T04:28:15.106Z,7.9
2023-03-17T04:32:14.979Z,7.9
2023-03-17T04:34:16.795Z,7.9
2023-03-17T04:36:18.393Z,7.9
2023-03-17T04:38:13.416Z,7.9
2023-03-17T04:44:12.440Z,7.9
2023-03-17T04:48:11.902Z,7.9
2023-03-17T04:50:12.534Z,7.9
2023-03-17T04:52:11.598Z,7.9
2023-03-17T04:54:11.175Z,7.9
2023-03-17T04:56:10.732Z,7.9
2023-03-17T04:58:15.526Z,7.9
2023-03-17T05:00:11.876Z,7.9
2023-03-17T05:02:09.368Z,7.8
2023-03-17T05:06:08.639Z,7.8
2023-03-17T05:08:08.256Z,7.8
2023-03-17T05:10:08.808Z,7.8
2023-03-17T05:12:09.177Z,7.7
2023-03-17T05:14:07.584Z,7.7
2023-03-17T05:16:08.057Z,7.7
2023-03-17T05:18:07.285Z,7.7
2023-03-17T05:20:07.703Z,7.5
2023-03-17T05:22:06.218Z,7.5
2023-03-17T05:24:06.073Z,7.5
2023-03-17T05:26:05.709Z,7.4
2023-03-17T05:28:06.034Z,7.5
2023-03-17T05:36:04.297Z,7.5
2023-03-17T05:38:03.026Z,7.4
2023-03-17T05:40:02.915Z,7.5
2023-03-17T05:44:02.065Z,7.5
2023-03-17T05:46:02.828Z,7.5
2023-03-17T05:48:02.422Z,7.4
2023-03-17T05:50:01.316Z,7.4
2023-03-17T05:52:01.077Z,7.3
2023-03-17T05:54:00.238Z,7.3
2023-03-17T05:55:59.865Z,7.3
2023-03-17T06:05:58.327Z,7.3
2023-03-17T06:11:57.201Z,7.2
2023-03-17T06:13:56.889Z,7.1
2023-03-17T06:15:56.654Z,7.1
2023-03-17T06:17:56.209Z,7.1
2023-03-17T06:19:55.798Z,7.1
2023-03-17T06:21:55.513Z,7.2
2023-03-17T06:25:54.810Z,7.2
2023-03-17T06:29:54.077Z,7.2
2023-03-17T06:31:53.784Z,7.2
2023-03-17T06:33:52.999Z,7.2
2023-03-17T06:35:52.744Z,7.3
2023-03-17T06:37:53.145Z,7.3
2023-03-17T06:41:52.707Z,7.4
2023-03-17T06:43:51.707Z,7.4
2023-03-17T06:45:51.460Z,7.4
2023-03-17T06:47:50.583Z,7.5
2023-03-17T06:51:50.611Z,7.6
2023-03-17T06:53:50.018Z,7.6
2023-03-17T06:55:49.112Z,7.6
2023-03-17T06:57:51.058Z,7.7
2023-03-17T06:59:48.592Z,7.7
2023-03-17T07:03:47.768Z,7.8
2023-03-17T07:05:47.981Z,7.8
2023-03-17T07:07:46.990Z,7.8
2023-03-17T07:09:46.961Z,7.9
2023-03-17T07:11:46.269Z,7.9
2023-03-17T07:15:45.598Z,8.0
2023-03-17T07:17:46.061Z,8.0
2023-03-17T07:19:44.942Z,8.1
2023-03-17T07:23:44.250Z,8.2
2023-03-17T07:25:46.194Z,8.2
2023-03-17T07:27:43.470Z,8.2
2023-03-17T07:29:44.070Z,8.2
2023-03-17T07:31:44.224Z,8.3
2023-03-17T07:33:42.496Z,8.4
2023-03-17T07:35:42.936Z,8.4
2023-03-17T07:37:42.025Z,8.5
2023-03-17T07:41:43.045Z,8.5
2023-03-17T07:43:40.770Z,8.6
2023-03-17T07:45:41.090Z,8.7
2023-03-17T07:47:40.566Z,8.8
2023-03-17T07:49:41.920Z,8.8
2023-03-17T07:51:42.140Z,8.9
2023-03-17T07:53:39.990Z,9.0
2023-03-17T07:55:39.022Z,9.1
2023-03-17T07:57:39.296Z,9.2
2023-03-17T07:59:40.646Z,9.4
2023-03-17T08:01:39.090Z,9.5
2023-03-17T08:03:41.018Z,9.5
2023-03-17T08:05:37.543Z,9.6
2023-03-17T08:07:37.438Z,9.7
2023-03-17T08:09:36.763Z,9.8
2023-03-17T08:11:36.934Z,9.9
2023-03-17T08:13:36.066Z,10.0
2023-03-17T08:15:35.794Z,10.1
2023-03-17T08:17:36.318Z,10.2
2023-03-17T08:19:35.239Z,10.2
2023-03-17T08:21:35.108Z,10.2
2023-03-17T08:23:34.742Z,10.4
2023-03-17T08:25:34.178Z,10.4
2023-03-17T08:27:34.142Z,10.4
2023-03-17T08:29:35.025Z,10.4
2023-03-17T08:31:33.417Z,10.5
2023-03-17T08:33:33.499Z,10.6
2023-03-17T08:37:32.723Z,10.6
2023-03-17T08:39:32.833Z,10.7
2023-03-17T08:41:32.317Z,10.8
2023-03-17T08:43:31.542Z,10.8
2023-03-17T08:45:31.781Z,10.8
2023-03-17T08:47:31.908Z,10.8
2023-03-17T08:49:33.646Z,10.9
2023-03-17T08:51:33.312Z,11.0
2023-03-17T08:53:31.538Z,11.0
2023-03-17T08:55:29.820Z,11.1
2023-03-17T08:59:29.531Z,11.1
2023-03-17T09:01:29.225Z,11.2
2023-03-17T09:03:29.701Z,11.2
2023-03-17T09:05:29.230Z,11.3
2023-03-17T09:07:28.169Z,11.4
2023-03-17T09:09:29.852Z,11.4
2023-03-17T09:11:30.497Z,11.6
2023-03-17T09:13:27.656Z,11.6
2023-03-17T09:15:27.461Z,11.7
2023-03-17T09:17:27.074Z,11.7
2023-03-17T09:19:26.513Z,11.7
2023-03-17T09:23:26.056Z,11.9
2023-03-17T09:27:25.822Z,12.1
2023-03-17T09:29:25.634Z,12.0
2023-03-17T09:31:26.258Z,12.0
2023-03-17T09:33:24.956Z,12.0
2023-03-17T09:37:24.182Z,12.0
2023-03-17T09:39:24.056Z,12.0
2023-03-17T09:41:41.761Z,12.0
2023-03-17T09:43:30.980Z,11.9
2023-03-17T09:45:30.429Z,12.0
2023-03-17T09:47:42.738Z,12.1
2023-03-17T09:49:36.693Z,12.1
2023-03-17T09:51:22.412Z,12.2
2023-03-17T09:55:26.280Z,12.4
2023-03-17T09:57:28.300Z,12.7
2023-03-17T09:59:29.608Z,12.8
2023-03-17T10:01:21.994Z,12.9
2023-03-17T10:03:22.488Z,13.0
2023-03-17T10:05:22.885Z,12.9
2023-03-17T10:07:27.592Z,13.0
2023-03-17T10:11:30.473Z,13.0
2023-03-17T10:15:25.554Z,13.3
2023-03-17T10:17:22.752Z,13.3
2023-03-17T10:19:26.431Z,13.4
2023-03-17T10:21:24.484Z,13.6
2023-03-17T10:23:22.932Z,13.7
2023-03-17T10:27:18.897Z,13.7
2023-03-17T10:31:27.059Z,13.9
2023-03-17T10:33:18.737Z,13.9
2023-03-17T10:35:18.284Z,13.8
2023-03-17T10:37:19.006Z,13.9
2023-03-17T10:41:17.165Z,14.0
2023-03-17T10:43:20.831Z,14.0
2023-03-17T10:45:24.998Z,14.0
2023-03-17T10:47:23.521Z,14.1
2023-03-17T10:49:17.258Z,14.1
2023-03-17T10:51:21.330Z,14.2
2023-03-17T10:53:20.611Z,14.2
2023-03-17T10:57:17.488Z,14.4
2023-03-17T10:59:19.114Z,14.5
2023-03-17T11:03:20.257Z,14.3
2023-03-17T11:07:17.622Z,14.4
2023-03-17T11:09:17.727Z,14.5
2023-03-17T11:11:25.070Z,14.5
2023-03-17T11:15:16.808Z,14.8
2023-03-17T11:17:18.565Z,14.9
2023-03-17T11:19:16.177Z,15.0
2023-03-17T11:21:22.363Z,15.0
2023-03-17T11:23:25.488Z,15.1
2023-03-17T11:25:17.097Z,15.0
2023-03-17T11:27:23.304Z,15.1
2023-03-17T11:31:18.627Z,15.4
2023-03-17T11:35:28.509Z,15.5
2023-03-17T11:37:28.142Z,15.6
2023-03-17T11:41:31.884Z,15.4
2023-03-17T11:45:20.865Z,15.7
2023-03-17T11:47:23.233Z,15.7
2023-03-17T11:51:21.479Z,15.8
2023-03-17T11:53:26.253Z,15.6
2023-03-17T11:55:20.589Z,15.8
2023-03-17T11:57:17.927Z,15.9
2023-03-17T11:59:17.616Z,15.9
2023-03-17T12:01:15.031Z,16.1
2023-03-17T12:03:16.959Z,16.1
2023-03-17T12:05:14.418Z,16.2
2023-03-17T12:09:21.165Z,16.1
2023-03-17T12:11:14.313Z,16.3
2023-03-17T12:13:14.364Z,16.3
2023-03-17T12:17:15.422Z,16.5
2023-03-17T12:19:13.993Z,16.4
2023-03-17T12:21:16.519Z,16.6
2023-03-17T12:23:15.992Z,16.9
2023-03-17T12:25:15.633Z,17.0
2023-03-17T12:27:12.924Z,17.1
2023-03-17T12:29:15.251Z,17.2
2023-03-17T12:31:13.116Z,17.3
2023-03-17T12:33:19.378Z,17.2
2023-03-17T12:35:25.258Z,17.1
2023-03-17T12:37:08.788Z,17.3
2023-03-17T12:39:10.392Z,17.4
2023-03-17T12:43:26.891Z,17.4
2023-03-17T12:47:21.132Z,17.4
2023-03-17T12:49:26.554Z,17.5
2023-03-17T12:53:22.165Z,17.2
2023-03-17T12:55:12.699Z,17.3
2023-03-17T12:59:12.813Z,17.6
2023-03-17T13:01:16.344Z,17.7
2023-03-17T13:03:16.222Z,17.6
2023-03-17T13:05:09.043Z,17.5
2023-03-17T13:07:11.958Z,17.5
2023-03-17T13:15:25.843Z,17.4
2023-03-17T13:17:27.512Z,17.4
2023-03-17T13:19:12.082Z,17.4
2023-03-17T13:23:13.563Z,17.6
2023-03-17T13:25:14.759Z,17.4
2023-03-17T13:27:10.231Z,17.4
2023-03-17T13:29:22.645Z,17.5
2023-03-17T13:31:12.991Z,17.5
2023-03-17T13:33:18.687Z,17.4
2023-03-17T13:37:18.737Z,17.2
2023-03-17T13:39:24.192Z,17.1
2023-03-17T13:41:17.677Z,17.0
2023-03-17T13:43:15.207Z,17.1
2023-03-17T13:45:15.429Z,17.1
2023-03-17T13:49:18.670Z,17.0
2023-03-17T13:51:17.338Z,17.0
2023-03-17T13:53:09.432Z,16.9
2023-03-17T13:55:23.650Z,17.0
2023-03-17T13:57:21.825Z,16.9
2023-03-17T13:59:06.488Z,16.8
2023-03-17T14:01:09.139Z,16.7
2023-03-17T14:03:15.289Z,16.7
2023-03-17T14:05:06.078Z,16.7
2023-03-17T14:07:08.909Z,16.7
2023-03-17T14:09:10.021Z,16.6
2023-03-17T14:13:16.490Z,16.6
2023-03-17T14:15:08.301Z,16.6
2023-03-17T14:19:15.136Z,16.5
2023-03-17T14:23:03.365Z,16.4
2023-03-17T14:25:02.879Z,16.4
2023-03-17T14:27:06.609Z,16.3
2023-03-17T14:29:03.742Z,16.2
2023-03-17T14:33:05.640Z,16.3
2023-03-17T14:35:01.635Z,16.1
2023-03-17T14:37:03.374Z,16.2
2023-03-17T14:41:06.720Z,16.2
2023-03-17T14:43:01.896Z,16.2
2023-03-17T14:45:03.049Z,16.1
2023-03-17T14:47:02.482Z,16.2
2023-03-17T14:49:04.486Z,16.2
2023-03-17T14:51:04.717Z,16.2
2023-03-17T14:55:01.229Z,16.1
2023-03-17T14:57:04.797Z,16.1
2023-03-17T14:59:04.978Z,16.0
2023-03-17T15:01:04.976Z,15.9
2023-03-17T15:03:02.751Z,16.0
2023-03-17T15:05:05.712Z,15.9
2023-03-17T15:07:01.833Z,15.9
2023-03-17T15:09:03.071Z,15.9
2023-03-17T15:11:01.620Z,15.9
2023-03-17T15:13:01.350Z,15.9
2023-03-17T15:15:02.927Z,15.8
2023-03-17T15:17:02.046Z,15.8
2023-03-17T15:19:05.749Z,15.7
2023-03-17T15:20:59.678Z,15.7
2023-03-17T15:23:02.476Z,15.7
2023-03-17T15:25:00.648Z,15.7
2023-03-17T15:28:59.528Z,15.5
2023-03-17T15:31:10.805Z,15.6
2023-03-17T15:33:00.327Z,15.5
2023-03-17T15:34:58.032Z,15.5
2023-03-17T15:36:58.255Z,15.4
2023-03-17T15:38:57.683Z,15.4
2023-03-17T15:40:57.564Z,15.4
2023-03-17T15:42:58.053Z,15.4
2023-03-17T15:44:59.278Z,15.3
2023-03-17T15:46:57.270Z,15.3
2023-03-17T15:50:59.120Z,15.2
2023-03-17T15:52:57.240Z,15.1
2023-03-17T15:54:58.348Z,15.1
2023-03-17T15:58:56.431Z,15.1
2023-03-17T16:03:01.114Z,14.9
2023-03-17T16:04:56.919Z,14.9
2023-03-17T16:08:55.563Z,14.9
2023-03-17T16:10:55.512Z,14.8
2023-03-17T16:14:55.190Z,14.8
2023-03-17T16:18:55.094Z,14.7
2023-03-17T16:20:55.180Z,14.7
2023-03-17T16:24:54.590Z,14.6
2023-03-17T16:26:54.374Z,14.5
2023-03-17T16:30:55.694Z,14.5
2023-03-17T16:32:56.976Z,14.5
2023-03-17T16:34:53.556Z,14.5
2023-03-17T16:36:55.419Z,14.4
2023-03-17T16:38:53.452Z,14.5
2023-03-17T16:40:54.897Z,14.4
2023-03-17T16:42:53.566Z,14.4
2023-03-17T16:44:52.809Z,14.4
2023-03-17T16:46:52.569Z,14.4
2023-03-17T16:50:52.723Z,14.4
2023-03-17T16:52:52.524Z,14.4
2023-03-17T16:54:51.820Z,14.3
2023-03-17T16:56:51.908Z,14.3
2023-03-17T17:00:54.472Z,14.3
2023-03-17T17:02:52.382Z,14.2
2023-03-17T17:04:51.374Z,14.2
2023-03-17T17:06:51.670Z,14.2
2023-03-17T17:08:51.716Z,14.1
2023-03-17T17:10:50.736Z,14.1
2023-03-17T17:12:50.863Z,14.1
2023-03-17T17:14:50.638Z,14.1
2023-03-17T17:16:50.681Z,14.1
2023-03-17T17:18:49.896Z,14.0
2023-03-17T17:20:50.996Z,13.9
2023-03-17T17:24:49.411Z,13.8
2023-03-17T17:26:49.648Z,13.7
2023-03-17T17:30:49.708Z,13.6
2023-03-17T17:32:48.998Z,13.7
2023-03-17T17:34:48.360Z,13.6
2023-03-17T17:38:48.279Z,13.6
2023-03-17T17:40:48.969Z,13.4
2023-03-17T17:42:47.783Z,13.4
2023-03-17T17:44:47.502Z,13.4
2023-03-17T17:46:47.607Z,13.3
2023-03-17T17:48:48.006Z,13.4
2023-03-17T17:52:47.905Z,13.4
2023-03-17T17:54:46.637Z,13.3
2023-03-17T17:56:47.160Z,13.3
2023-03-17T17:58:46.316Z,13.4
2023-03-17T18:00:47.322Z,13.4
2023-03-17T18:02:46.102Z,13.3
2023-03-17T18:04:46.436Z,13.4
2023-03-17T18:06:46.002Z,13.4
2023-03-17T18:12:45.239Z,13.3
2023-03-17T18:14:45.009Z,13.3
2023-03-17T18:16:45.229Z,13.3
2023-03-17T18:20:44.676Z,13.4
2023-03-17T18:22:44.603Z,13.3
2023-03-17T18:28:44.479Z,13.3
2023-03-17T18:30:43.990Z,13.3
2023-03-17T18:32:44.455Z,13.3
2023-03-17T18:34:45.819Z,13.3
2023-03-17T18:36:45.483Z,13.3
2023-03-17T18:38:43.027Z,13.4
2023-03-17T18:40:43.544Z,13.3
2023-03-17T18:42:42.824Z,13.3
2023-03-17T18:44:42.243Z,13.3
2023-03-17T18:46:42.863Z,13.3
2023-03-17T18:50:42.013Z,13.3
2023-03-17T18:52:42.980Z,13.3
2023-03-17T18:54:41.444Z,13.3
2023-03-17T18:56:41.210Z,13.3
2023-03-17T18:58:40.960Z,13.3
2023-03-17T19:00:41.200Z,13.3
2023-03-17T19:02:40.674Z,13.3
2023-03-17T19:04:45.078Z,13.3
2023-03-17T19:06:41.647Z,13.3
2023-03-17T19:08:40.991Z,13.4
2023-03-17T19:10:42.793Z,13.3
2023-03-17T19:12:41.385Z,13.4
2023-03-17T19:14:39.694Z,13.4
2023-03-17T19:16:40.369Z,13.4
2023-03-17T19:18:42.021Z,13.4
2023-03-17T19:20:39.036Z,13.4
2023-03-17T19:22:39.392Z,13.4
2023-03-17T19:24:40.153Z,13.4
2023-03-17T19:26:38.315Z,13.3
2023-03-17T19:28:38.690Z,13.4
2023-03-17T19:30:38.268Z,13.4
2023-03-17T19:34:37.618Z,13.4
2023-03-17T19:36:40.348Z,13.4
2023-03-17T19:38:38.031Z,13.4
2023-03-17T19:40:37.729Z,13.4
2023-03-17T19:42:36.995Z,13.4
2023-03-17T19:46:37.315Z,13.4
2023-03-17T19:48:36.483Z,13.3
2023-03-17T19:50:36.558Z,13.3
2023-03-17T19:52:36.161Z,13.3
2023-03-17T19:54:36.844Z,13.3
2023-03-17T19:56:37.444Z,13.4
2023-03-17T20:00:35.131Z,13.3
2023-03-17T20:02:35.070Z,13.3
2023-03-17T20:04:36.265Z,13.3
2023-03-17T20:06:35.209Z,13.3
2023-03-17T20:08:35.398Z,13.3
2023-03-17T20:10:34.420Z,13.3
2023-03-17T20:12:37.040Z,13.2
2023-03-17T20:16:35.184Z,13.2
2023-03-17T20:18:34.492Z,13.2
2023-03-17T20:20:33.498Z,13.1
2023-03-17T20:22:33.254Z,13.1
2023-03-17T20:24:33.714Z,13.1
2023-03-17T20:26:32.996Z,13.1
2023-03-17T20:28:32.529Z,13.0
2023-03-17T20:30:32.281Z,12.9
2023-03-17T20:32:33.404Z,12.9
2023-03-17T20:34:33.573Z,12.9
2023-03-17T20:36:31.430Z,12.8
2023-03-17T20:38:32.362Z,12.8
2023-03-17T20:40:31.516Z,12.7
2023-03-17T20:42:31.143Z,12.8
2023-03-17T20:44:30.700Z,12.8
2023-03-17T20:50:30.365Z,12.7
2023-03-17T20:52:30.669Z,12.7
2023-03-17T20:54:29.742Z,12.7
2023-03-17T20:56:32.871Z,12.6
2023-03-17T20:58:29.429Z,12.7
2023-03-17T21:00:31.070Z,12.6
2023-03-17T21:02:29.091Z,12.6
2023-03-17T21:04:28.930Z,12.6
2023-03-17T21:06:28.478Z,12.6
2023-03-17T21:08:28.223Z,12.6
2023-03-17T21:10:28.137Z,12.6
2023-03-17T21:12:27.873Z,12.6
2023-03-17T21:14:28.215Z,12.6
2023-03-17T21:16:28.817Z,12.5
2023-03-17T21:18:28.567Z,12.5
2023-03-17T21:20:27.129Z,12.5
2023-03-17T21:22:26.953Z,12.4
2023-03-17T21:24:30.756Z,12.5
2023-03-17T21:26:26.315Z,12.4
2023-03-17T21:28:26.357Z,12.5
2023-03-17T21:30:25.955Z,12.5
2023-03-17T21:32:25.694Z,12.4
2023-03-17T21:36:25.598Z,12.4
2023-03-17T21:38:27.151Z,12.4
2023-03-17T21:40:25.199Z,12.4
2023-03-17T21:42:25.003Z,12.4
2023-03-17T21:44:24.494Z,12.3
2023-03-17T21:46:24.435Z,12.3
2023-03-17T21:48:23.955Z,12.2
2023-03-17T21:50:23.723Z,12.2
2023-03-17T21:52:24.336Z,12.1
2023-03-17T21:54:23.481Z,12.1
2023-03-17T21:56:23.703Z,12.1
2023-03-17T21:58:22.949Z,12.1
2023-03-17T22:00:23.510Z,12.1
2023-03-17T22:02:22.948Z,12.0
2023-03-17T22:04:22.896Z,11.9
2023-03-17T22:06:23.973Z,12.0
2023-03-17T22:08:22.517Z,12.0
2023-03-17T22:10:21.483Z,11.9
2023-03-17T22:12:23.076Z,12.0
2023-03-17T22:16:21.190Z,11.9
2023-03-17T22:18:20.950Z,12.0
2023-03-17T22:20:20.493Z,11.9
2023-03-17T22:22:20.767Z,11.8
2023-03-17T22:24:20.623Z,11.8
2023-03-17T22:26:20.988Z,11.8
2023-03-17T22:28:19.811Z,11.8
2023-03-17T22:30:20.137Z,11.8
2023-03-17T22:32:19.136Z,11.8
2023-03-17T22:34:19.198Z,11.8
2023-03-17T22:38:18.532Z,11.8
2023-03-17T22:40:18.853Z,11.8
2023-03-17T22:44:17.681Z,11.7
2023-03-17T22:46:18.790Z,11.7
2023-03-17T22:48:17.260Z,11.8
2023-03-17T22:50:17.732Z,11.7
2023-03-17T22:52:17.992Z,11.7
2023-03-17T22:54:17.654Z,11.7
2023-03-17T22:56:17.925Z,11.7
2023-03-17T22:58:16.196Z,11.7
2023-03-17T23:00:16.550Z,11.6
2023-03-17T23:02:18.447Z,11.6
2023-03-17T23:04:16.435Z,11.7
2023-03-17T23:06:15.408Z,11.7
2023-03-17T23:08:15.398Z,11.7
2023-03-17T23:10:16.695Z,11.6
2023-03-17T23:12:15.270Z,11.6
2023-03-17T23:14:14.728Z,11.6
2023-03-17T23:16:15.421Z,11.5
2023-03-17T23:18:14.737Z,11.6
2023-03-17T23:20:14.897Z,11.6
2023-03-17T23:22:13.983Z,11.6
2023-03-17T23:24:13.546Z,11.5
2023-03-17T23:28:14.568Z,11.3
2023-03-17T23:30:14.340Z,11.4
2023-03-17T23:32:12.950Z,11.4
2023-03-17T23:34:12.527Z,11.4
2023-03-17T23:36:13.299Z,11.5
2023-03-17T23:38:12.502Z,11.4
2023-03-17T23:40:16.153Z,11.5
2023-03-17T23:42:11.611Z,11.4
2023-03-17T23:44:11.712Z,11.4
2023-03-17T23:46:12.841Z,11.4
2023-03-17T23:48:10.885Z,11.4
2023-03-17T23:50:11.996Z,11.4
2023-03-17T23:52:10.859Z,11.4
2023-03-17T23:56:11.931Z,11.3
2023-03-17T23:58:11.414Z,11.2
